This is the latest recevied weather packets stored in our database for station/object W4TBD-13. If no packets are shown the sender has not sent any weather packets the latest 10 day(s).
| Time | Temp. | Humidity | Pressure | Rain* | Wind** | Luminosity | Snow |
|---|---|---|---|---|---|---|---|
| 1777629904 | 5° C | 94% | 1005.8 hPa | 0 mm | - | 0 W/m² | - |
| 1777629004 | 5° C | 94% | 1005.8 hPa | 0 mm | - | 0 W/m² | - |
| 1777627204 | 5.56° C | 93% | 1005.6 hPa | 0 mm | - | 0 W/m² | - |
| 1777625104 | 6.11° C | 90% | 1005.7 hPa | 0 mm | - | 0 W/m² | - |
| 1777624204 | 6.67° C | 88% | 1005.6 hPa | 0 mm | - | 0 W/m² | - |
| 1777623304 | 6.67° C | 86% | 1005.3 hPa | 0 mm | - | 0 W/m² | - |
| 1777623005 | 6.67° C | 86% | 1005.3 hPa | 0 mm | - | 0 W/m² | - |
| 1777621804 | 7.22° C | 85% | 1005.1 hPa | 0 mm | - | 0 W/m² | - |
| 1777621505 | 6.67° C | 85% | 1005.2 hPa | 0 mm | - | 0 W/m² | - |
| 1777621204 | 6.67° C | 85% | 1005.3 hPa | 0 mm | - | 0 W/m² | - |
| 1777620304 | 7.22° C | 84% | 1005.1 hPa | 0 mm | - | 0 W/m² | - |
| 1777612503 | 10° C | 71% | 1004.7 hPa | 0 mm | - | 0 W/m² | - |
| 1777609505 | 11.11° C | 65% | 1004.4 hPa | 0 mm | - | 0 W/m² | - |
| 1777609205 | 11.67° C | 65% | 1004.4 hPa | 0 mm | - | 0 W/m² | - |
| 1777607404 | 12.22° C | 62% | 1004.2 hPa | 0 mm | - | 0 W/m² | - |
| 1777606204 | 12.78° C | 59% | 1004.3 hPa | 0 mm | - | 0 W/m² | - |
| 1777603804 | 13.89° C | 55% | 1003.9 hPa | 0 mm | - | 0 W/m² | - |
| 1777601405 | 14.44° C | 51% | 1003.8 hPa | 0 mm | - | 0 W/m² | - |
| 1777595405 | 17.78° C | 44% | 1001.1 hPa | 0 mm | - | 0 W/m² | - |
| 1777594806 | 17.78° C | 45% | 1001 hPa | 0 mm | - | 0 W/m² | - |
| 1777591506 | 20° C | 42% | 999.7 hPa | 0 mm | - | 0 W/m² | - |
| 1777588205 | 21.11° C | 45% | 998.9 hPa | 0 mm | - | 0 W/m² | - |
| 1777584604 | 21.11° C | 44% | 998.7 hPa | 0 mm | - | 0 W/m² | - |
| 1777583404 | 21.67° C | 42% | 998.7 hPa | 0 mm | - | 0 W/m² | - |
| 1777582805 | 21.11° C | 43% | 998.5 hPa | 0 mm | - | 0 W/m² | - |
* Rain latest hour (hover to see other rain measurements)
** Current wind speed in m/s (hover to see current wind gust speed)